YLQ weather

La Tuque Airport
La Tuque, Quebec, Canada

Public forecast

Using degrees Celsius for public forecast. Weather courtesy of forecast.io.

METAR (pilot weather report)

Closest report is C J.H.L.(Joe) Lecomte) Heliport, 60.7 nm (112.5 km) ESE. Retrieved 2019/05/25 20:00 UTC (32 minutes ago):

CYOY 252000Z AUTO 21007KT 090V250 9SM FEW042 SCT065 20/09 A2997 RMK SLP156

TAF (pilot weather forecast)

Forecast is more than 12 hours old.

Closest forecast is C J.H.L.(Joe) Lecomte) Heliport, 60.7 nm (112.5 km) ESE. Retrieved 2019/05/24 18:00 UTC (1 day ago):

TAF CYOY 241730Z 2418/2506 35005KT P6SM SCT030 BKN100 TEMPO 2420/2502 P6SM -SHRA BKN030 BKN100 FM250400 VRB03KT P6SM FEW100 RMK FCST BASED ON AUTO OBS 241800-241900Z. NXT FCST BY 250000Z